createdAt,value
2023-05-19T00:04:34.756Z,54
2023-05-19T00:09:41.098Z,54
2023-05-19T00:14:49.060Z,54
2023-05-19T00:19:55.429Z,54
2023-05-19T00:25:01.703Z,54
2023-05-19T00:30:08.154Z,54
2023-05-19T00:35:14.516Z,54
2023-05-19T00:40:20.787Z,54
2023-05-19T00:45:27.213Z,54
2023-05-19T00:50:33.850Z,54
2023-05-19T00:55:39.922Z,54
2023-05-19T01:00:46.309Z,54
2023-05-19T01:05:52.694Z,54
2023-05-19T01:10:59.036Z,54
2023-05-19T01:16:05.376Z,54.5
2023-05-19T01:21:11.685Z,54
2023-05-19T01:26:18.096Z,54
2023-05-19T01:31:24.464Z,54
2023-05-19T01:46:43.538Z,54
2023-05-19T01:51:49.885Z,54.5
2023-05-19T01:56:56.235Z,54.5
2023-05-19T02:02:02.574Z,54.5
2023-05-19T02:07:08.965Z,54.5
2023-05-19T02:12:15.325Z,54.5
2023-05-19T02:17:21.716Z,54.5
2023-05-19T02:22:28.056Z,54.5
2023-05-19T02:27:34.389Z,54.5
2023-05-19T02:32:40.810Z,54.5
2023-05-19T02:37:47.104Z,54.5
2023-05-19T02:48:01.502Z,54.5
2023-05-19T02:53:07.803Z,54.5
2023-05-19T02:58:14.156Z,54.5
2023-05-19T03:03:20.571Z,54.5
2023-05-19T03:08:26.884Z,54.5
2023-05-19T03:13:33.221Z,54.5
2023-05-19T03:18:39.619Z,54.5
2023-05-19T03:23:45.961Z,54.5
2023-05-19T03:28:52.321Z,54.5
2023-05-19T03:33:58.811Z,54.5
2023-05-19T03:39:05.056Z,54.5
2023-05-19T03:44:11.402Z,54.5
2023-05-19T03:49:17.759Z,54.5
2023-05-19T03:54:24.361Z,54.5
2023-05-19T03:59:30.493Z,54.5
2023-05-19T04:04:36.963Z,55
2023-05-19T04:09:43.223Z,55
2023-05-19T04:14:49.568Z,55
2023-05-19T04:19:55.946Z,55
2023-05-19T04:25:02.289Z,55
2023-05-19T04:30:08.604Z,55
2023-05-19T04:35:14.981Z,55
2023-05-19T04:40:21.372Z,55
2023-05-19T04:45:27.718Z,55
2023-05-19T04:50:34.393Z,55.5
2023-05-19T05:00:48.397Z,55.5
2023-05-19T05:05:54.787Z,55.5
2023-05-19T05:11:01.087Z,55.5
2023-05-19T05:16:07.509Z,55.5
2023-05-19T05:21:13.834Z,56
2023-05-19T05:26:20.203Z,56
2023-05-19T05:31:26.598Z,56.5
2023-05-19T05:36:32.920Z,56.5
2023-05-19T05:41:39.296Z,56.5
2023-05-19T05:46:45.626Z,57
2023-05-19T05:52:05.004Z,57
2023-05-19T05:56:58.362Z,57.5
2023-05-19T06:02:04.779Z,57.5
2023-05-19T06:07:11.094Z,57.5
2023-05-19T06:12:17.457Z,57.5
2023-05-19T06:17:23.829Z,57.5
2023-05-19T06:22:30.168Z,57.5
2023-05-19T06:27:36.537Z,57.5
2023-05-19T06:32:42.872Z,57.5
2023-05-19T06:37:49.305Z,57.5
2023-05-19T06:42:55.641Z,57.5
2023-05-19T06:48:01.984Z,57.5
2023-05-19T06:53:08.329Z,58
2023-05-19T06:58:14.710Z,58
2023-05-19T07:03:21.108Z,58
2023-05-19T07:08:27.377Z,58
2023-05-19T07:13:33.739Z,58
2023-05-19T07:23:46.466Z,58
2023-05-19T07:28:52.761Z,58
2023-05-19T07:33:59.202Z,58
2023-05-19T07:39:05.560Z,58
2023-05-19T07:44:11.915Z,58
2023-05-19T07:49:18.282Z,58
2023-05-19T07:54:24.667Z,58
2023-05-19T07:59:30.981Z,58
2023-05-19T08:04:37.407Z,58
2023-05-19T08:09:43.679Z,58
2023-05-19T08:14:50.050Z,58.5
2023-05-19T08:19:56.411Z,58.5
2023-05-19T08:25:02.804Z,58.5
2023-05-19T08:30:09.135Z,59
2023-05-19T08:35:15.514Z,59
2023-05-19T08:40:21.852Z,59
2023-05-19T08:45:28.249Z,59
2023-05-19T08:50:34.853Z,59.5
2023-05-19T08:55:40.929Z,59.5
2023-05-19T09:00:47.305Z,59.5
2023-05-19T09:05:53.728Z,59.5
2023-05-19T09:16:07.994Z,60
2023-05-19T09:21:14.299Z,60
2023-05-19T09:26:20.660Z,60
2023-05-19T09:31:27.081Z,60.5
2023-05-19T09:41:39.746Z,60.5
2023-05-19T09:46:46.144Z,60.5
2023-05-19T09:51:52.502Z,60.5
2023-05-19T10:02:05.241Z,60.5
2023-05-19T10:07:11.594Z,60.5
2023-05-19T10:12:17.945Z,60.5
2023-05-19T10:17:24.474Z,60.5
2023-05-19T10:27:36.976Z,60.5
2023-05-19T10:32:43.429Z,60.5
2023-05-19T10:37:49.748Z,60
2023-05-19T10:42:56.076Z,60
2023-05-19T10:48:02.456Z,60
2023-05-19T10:53:08.822Z,60.5
2023-05-19T10:58:15.159Z,60.5
2023-05-19T11:03:21.483Z,60.5
2023-05-19T11:08:27.867Z,60.5
2023-05-19T11:13:34.254Z,60.5
2023-05-19T11:18:40.638Z,60.5
2023-05-19T11:23:46.978Z,60.5
2023-05-19T11:28:53.286Z,60.5
2023-05-19T11:33:59.661Z,60.5
2023-05-19T11:39:06.019Z,60.5
2023-05-19T11:44:12.395Z,60.5
2023-05-19T11:49:18.745Z,60.5
2023-05-19T11:54:26.682Z,61
2023-05-19T11:59:34.968Z,60
2023-05-19T12:04:39.448Z,60.5
2023-05-19T12:09:47.323Z,60.5
2023-05-19T12:14:53.755Z,60.5
2023-05-19T12:20:00.068Z,60.5
2023-05-19T12:25:06.417Z,60.5
2023-05-19T12:30:12.766Z,60.5
2023-05-19T12:35:19.138Z,60.5
2023-05-19T12:40:25.511Z,60.5
2023-05-19T12:45:31.868Z,60.5
2023-05-19T12:50:39.824Z,61
2023-05-19T12:55:46.156Z,61
2023-05-19T13:11:05.237Z,60.5
2023-05-19T13:16:11.586Z,60.5
2023-05-19T13:21:17.888Z,60.5
2023-05-19T13:26:24.319Z,60.5
2023-05-19T13:31:30.792Z,60.5
2023-05-19T13:36:37.083Z,60
2023-05-19T13:41:43.383Z,60
2023-05-19T13:46:50.815Z,60
2023-05-19T13:51:56.080Z,59.5
2023-05-19T13:57:02.446Z,59.5
2023-05-19T14:02:08.995Z,59.5
2023-05-19T14:07:16.760Z,59.5
2023-05-19T14:12:27.611Z,59
2023-05-19T14:17:29.485Z,59
2023-05-19T14:22:35.825Z,58.5
2023-05-19T14:27:42.178Z,58.5
2023-05-19T14:32:48.543Z,58.5
2023-05-19T14:37:54.885Z,58
2023-05-19T14:43:01.162Z,58
2023-05-19T14:48:09.206Z,58
2023-05-19T14:53:17.150Z,58
2023-05-19T14:58:28.864Z,57.5
2023-05-19T15:03:29.872Z,57
2023-05-19T15:08:36.210Z,57
2023-05-19T15:13:44.210Z,57
2023-05-19T15:18:50.635Z,56.5
2023-05-19T15:23:56.830Z,56.5
2023-05-19T15:29:03.233Z,56.5
2023-05-19T15:34:09.573Z,56.5
2023-05-19T15:39:15.890Z,56
2023-05-19T15:44:22.303Z,56
2023-05-19T15:49:28.659Z,56
2023-05-19T15:54:35.030Z,55.5
2023-05-19T15:59:41.383Z,55.5
2023-05-19T16:04:47.756Z,55.5
2023-05-19T16:09:54.074Z,55.5
2023-05-19T16:15:00.425Z,55.5
2023-05-19T16:20:06.968Z,55.5
2023-05-19T16:25:13.118Z,55.5
2023-05-19T16:30:19.534Z,55
2023-05-19T16:35:25.916Z,55
2023-05-19T16:40:32.464Z,54.5
2023-05-19T16:45:38.535Z,54.5
2023-05-19T16:50:44.943Z,54
2023-05-19T16:55:51.314Z,54
2023-05-19T17:00:59.294Z,54
2023-05-19T17:06:05.595Z,54
2023-05-19T17:11:11.967Z,54
2023-05-19T17:16:18.341Z,54
2023-05-19T17:21:24.677Z,53.5
2023-05-19T17:26:30.954Z,53.5
2023-05-19T17:31:37.411Z,53.5
2023-05-19T17:36:43.755Z,53.5
2023-05-19T17:41:50.065Z,53
2023-05-19T17:46:56.555Z,53
2023-05-19T17:52:02.848Z,53
2023-05-19T17:57:09.214Z,53
2023-05-19T18:02:15.550Z,53
2023-05-19T18:07:21.858Z,53
2023-05-19T18:17:34.607Z,53
2023-05-19T18:22:40.924Z,52.5
2023-05-19T18:27:47.317Z,52.5
2023-05-19T18:32:53.716Z,53
2023-05-19T18:38:00.042Z,52.5
2023-05-19T18:43:06.365Z,52.5
2023-05-19T18:48:12.771Z,52.5
2023-05-19T18:53:19.052Z,53
2023-05-19T18:58:25.443Z,53
2023-05-19T19:03:31.934Z,53
2023-05-19T19:08:38.136Z,53
2023-05-19T19:13:46.174Z,53
2023-05-19T19:23:58.802Z,53
2023-05-19T19:29:05.179Z,53.5
2023-05-19T19:34:11.545Z,53.5
2023-05-19T19:39:17.909Z,53.5
2023-05-19T19:44:24.221Z,53.5
2023-05-19T19:49:30.602Z,53.5
2023-05-19T19:54:36.954Z,53
2023-05-19T19:59:43.335Z,53
2023-05-19T20:04:49.674Z,53
2023-05-19T20:09:56.030Z,53.5
2023-05-19T20:15:02.404Z,53
2023-05-19T20:20:08.733Z,53
2023-05-19T20:25:15.103Z,53
2023-05-19T20:30:21.457Z,53
2023-05-19T20:35:27.825Z,53
2023-05-19T20:40:34.215Z,53
2023-05-19T20:45:40.514Z,53
2023-05-19T20:50:46.880Z,53
2023-05-19T20:55:54.826Z,53
2023-05-19T21:01:01.211Z,53
2023-05-19T21:11:13.909Z,52.5
2023-05-19T21:16:20.295Z,52.5
2023-05-19T21:21:26.620Z,53
2023-05-19T21:26:33.013Z,53
2023-05-19T21:31:39.436Z,53
2023-05-19T21:41:52.083Z,53
2023-05-19T21:46:58.464Z,53
2023-05-19T21:52:04.759Z,53
2023-05-19T21:57:11.169Z,53
2023-05-19T22:02:17.568Z,53
2023-05-19T22:07:23.852Z,53
2023-05-19T22:12:30.381Z,53
2023-05-19T22:17:36.617Z,53
2023-05-19T22:22:42.895Z,53
2023-05-19T22:27:49.248Z,53
2023-05-19T22:32:55.745Z,53
2023-05-19T22:38:02.010Z,53
2023-05-19T22:43:08.364Z,53
2023-05-19T22:48:14.722Z,53
2023-05-19T22:53:21.062Z,53.5
2023-05-19T22:58:27.446Z,53.5
2023-05-19T23:03:33.783Z,53.5
2023-05-19T23:08:40.140Z,53.5
2023-05-19T23:13:46.498Z,53.5
2023-05-19T23:18:52.807Z,53.5
2023-05-19T23:23:59.195Z,53.5
2023-05-19T23:29:05.571Z,53.5
2023-05-19T23:34:11.890Z,53.5
2023-05-19T23:39:18.294Z,53.5
2023-05-19T23:44:24.681Z,53.5
2023-05-19T23:49:31.013Z,53.5
2023-05-19T23:54:37.393Z,53.5
2023-05-19T23:59:43.727Z,54
